Nord Imagination — 3FIA8 — position and weather

sailwx.info

Track history (hours):
 
Tides and Currents Weather Stations Pressure Air Temp Water Temp Dewpoint Dewpoint Depression Visibility Wind Speed Wind Dir Waves Ship Positions

Nord Imagination

Last reported at 2016-Jan-22 02:33 UTC. Time now 2016-Feb-07 14:59 UTC.
Position N 36°20' E 014°40'.
Warning: this ship's position is 16 days out of date.

Length 179 m; draft 11 m.

Type: Ship (hazmat cat B). MMSI: 354828000.

Date/timePositionNaut miles runAvg speedWind from/ knotsBaromVisibWave heightAir tempDewpointWater temp
2016-Jan-22 02:33N 36°20' E 014°40'1414.3
2016-Jan-22 01:33N 36°24' E 014°23'1414.4
2016-Jan-22 00:33N 36°30' E 014°07'1514.7
2016-Jan-21 23:33N 36°35' E 013°49'62015.1
2016-Jan-20 06:21N 37°00' E 000°55'16415.1
2016-Jan-19 19:31N 36°13' W 002°20'1515.4
2016-Jan-19 18:33N 36°12' W 002°38'1514.9
2016-Jan-19 17:32N 36°10' W 002°57'11114.8
2016-Jan-19 10:03N 36°00' W 005°13'815.2
2016-Jan-19 09:33N 35°58' W 005°22'12813.7
2016-Jan-19 00:16N 36°05' W 008°00'1114.0
2016-Jan-18 23:28N 36°07' W 008°14'1313.4
2016-Jan-18 22:31N 36°09' W 008°29'1414.1
2016-Jan-18 21:31N 36°10' W 008°47'1313.4
2016-Jan-18 20:31N 36°14' W 009°03'1413.7
2016-Jan-18 19:28N 36°25' W 009°14'1313.5
2016-Jan-18 18:31N 36°35' W 009°25'1414.0
2016-Jan-18 17:31N 36°45' W 009°36'1414.1
2016-Jan-18 16:31N 36°59' W 009°41'1514.8
2016-Jan-18 15:31N 37°13' W 009°45'1413.7
2016-Jan-18 14:28N 37°27' W 009°49'1314.1
2016-Jan-18 13:34N 37°40' W 009°53'1413.5
2016-Jan-18 12:31N 37°53' W 009°57'1414.2
2016-Jan-18 11:31N 38°07' W 010°01'1413.9
2016-Jan-18 10:31N 38°21' W 010°05'1212.5
2016-Jan-18 09:33N 38°32' W 010°08'1413.7
2016-Jan-18 08:33N 38°46' W 010°11'1313.4
2016-Jan-18 07:34N 38°59' W 010°12'1313.2
2016-Jan-18 06:33N 39°13' W 010°11'1714.7
2016-Jan-18 05:25N 39°29' W 010°11'1314.1
2016-Jan-18 04:31N 39°42' W 010°11'1413.4
2016-Jan-18 03:28N 39°56' W 010°11'1414.2
2016-Jan-18 02:28N 40°10' W 010°11'1413.5
2016-Jan-18 01:25N 40°24' W 010°11'1112.9
2016-Jan-18 00:33N 40°36' W 010°11'1413.7
2016-Jan-17 23:33N 40°49' W 010°11'1413.5
2016-Jan-17 22:33N 41°03' W 010°11'1313.4
2016-Jan-17 21:33N 41°16' W 010°11'1412.8
2016-Jan-17 20:30N 41°30' W 010°11'1212.2
2016-Jan-17 19:33N 41°41' W 010°11'1313.0
2016-Jan-17 18:33N 41°54' W 010°12'  
2016-Jan-15 10:33N 50°31' E 000°00'1212.4
2016-Jan-15 09:33N 50°34' E 000°19'1413.6
2016-Jan-15 08:33N 50°39' E 000°39'1414.4
2016-Jan-15 07:33N 50°49' E 000°56'1513.6
2016-Jan-15 06:27N 50°58' E 001°15'1112.4
2016-Jan-15 05:34N 51°05' E 001°28'1111.0
2016-Jan-15 04:34N 51°12' E 001°42'1110.8
2016-Jan-15 03:33N 51°21' E 001°51'1211.6
2016-Jan-15 02:34N 51°31' E 002°01'1312.8
2016-Jan-15 01:33N 51°41' E 002°14'7612.5
2016-Jan-14 19:29N 52°31' E 003°47'1111.6
2016-Jan-14 18:33N 52°31' E 004°05'1010.4
2016-Jan-14 17:33N 52°30' E 004°22'7 6.9
2016-Jan-14 16:34N 52°28' E 004°32'3 2.5
2016-Jan-14 15:33N 52°28' E 004°37'4 4.1
2016-Jan-14 14:34N 52°26' E 004°43'2 2.0
2016-Jan-14 13:31N 52°25' E 004°45'0 0.0
2016-Jan-14 12:28N 52°25' E 004°45'0 0.0
2016-Jan-14 11:31N 52°25' E 004°45'0 0.0
2016-Jan-14 10:31N 52°25' E 004°45'0 0.0
2016-Jan-14 09:31N 52°25' E 004°45'0 0.0
2016-Jan-14 08:31N 52°25' E 004°45'0 0.0
2016-Jan-14 07:28N 52°25' E 004°45'0 0.0
2016-Jan-14 06:31N 52°25' E 004°45'0 0.0
2016-Jan-14 05:31N 52°25' E 004°45'0 0.0
2016-Jan-14 04:31N 52°25' E 004°45'0 0.0
2016-Jan-14 03:31N 52°25' E 004°45'0 0.0
2016-Jan-14 02:31N 52°25' E 004°45'0 0.0
2016-Jan-14 01:31N 52°25' E 004°45'0 0.0
2016-Jan-14 00:31N 52°25' E 004°45'0 0.0
2016-Jan-13 23:31N 52°25' E 004°45'0 0.0
2016-Jan-13 22:31N 52°25' E 004°45'0 0.0
2016-Jan-13 21:28N 52°25' E 004°45'0 0.0
2016-Jan-13 20:31N 52°25' E 004°45'0 0.0
2016-Jan-13 19:28N 52°25' E 004°45'0 0.0
2016-Jan-13 18:31N 52°25' E 004°45'0 0.0
2016-Jan-13 17:31N 52°25' E 004°45'0 0.0
2016-Jan-13 16:31N 52°25' E 004°45'0 0.0
2016-Jan-13 15:28N 52°25' E 004°45'0 0.0
2016-Jan-13 14:31N 52°25' E 004°45'0 0.0
2016-Jan-13 13:31N 52°25' E 004°45'0 0.0
2016-Jan-13 12:31N 52°25' E 004°45'0 0.0
2016-Jan-13 11:28N 52°25' E 004°45'0 0.0
2016-Jan-13 10:31N 52°25' E 004°45'0 0.0
2016-Jan-13 09:31N 52°25' E 004°45'0 0.0
2016-Jan-13 08:31N 52°25' E 004°45'0 0.0
2016-Jan-13 07:31N 52°25' E 004°45'0 0.0
2016-Jan-13 06:31N 52°25' E 004°45'0 0.0
2016-Jan-13 05:31N 52°25' E 004°45'0 0.0
2016-Jan-13 04:31N 52°25' E 004°45'0 0.0
2016-Jan-13 03:31N 52°25' E 004°45'0 0.0
2016-Jan-13 02:31N 52°25' E 004°45'0 0.0
2016-Jan-13 01:31N 52°25' E 004°45'0 0.0
2016-Jan-13 00:31N 52°25' E 004°45'0 0.0
2016-Jan-12 23:31N 52°25' E 004°45'0 0.0
2016-Jan-12 22:31N 52°25' E 004°45'0 0.0
2016-Jan-12 21:31N 52°25' E 004°45'0 0.0
2016-Jan-12 20:31N 52°25' E 004°45'0 0.0
2016-Jan-12 19:31N 52°25' E 004°45'0 0.0
2016-Jan-12 18:28N 52°25' E 004°45'0 0.0
2016-Jan-12 17:31N 52°25' E 004°45'0 0.0
2016-Jan-12 16:28N 52°25' E 004°45'0 0.0
2016-Jan-12 15:31N 52°25' E 004°45'0 0.0
2016-Jan-12 14:31N 52°25' E 004°45'0 0.0
2016-Jan-12 13:31N 52°25' E 004°45'0 0.0
2016-Jan-12 12:31N 52°25' E 004°45'0 0.0
2016-Jan-12 11:31N 52°25' E 004°45'0 0.0
2016-Jan-12 10:28N 52°25' E 004°45'0 0.0
2016-Jan-12 09:31N 52°25' E 004°45'0 0.0
2016-Jan-12 08:31N 52°25' E 004°45'0 0.0
2016-Jan-12 07:31N 52°25' E 004°45'0 0.0
2016-Jan-12 06:31N 52°25' E 004°45'0 0.0
2016-Jan-12 05:31N 52°25' E 004°45'0 0.0
2016-Jan-12 04:31N 52°25' E 004°45'0 0.0
2016-Jan-12 03:31N 52°25' E 004°45'  
Track history (hours):
 
Tides and Currents Weather Stations Pressure Air Temp Water Temp Dewpoint Dewpoint Depression Visibility Wind Speed Wind Dir Waves Ship Positions

Nord Imagination

Last reported at 2016-Jan-22 02:33 UTC. Time now 2016-Feb-07 14:59 UTC.
Position N 36°20' E 014°40'.
Warning: this ship's position is 16 days out of date.

Length 179 m; draft 11 m.

Type: Ship (hazmat cat B). MMSI: 354828000.

Date/timePositionNaut miles runAvg speedWind from/ knotsBaromVisibWave heightAir tempDewpointWater temp
2016-Jan-22 02:33N 36°20' E 014°40'1414.3
2016-Jan-22 01:33N 36°24' E 014°23'1414.4
2016-Jan-22 00:33N 36°30' E 014°07'1514.7
2016-Jan-21 23:33N 36°35' E 013°49'62015.1
2016-Jan-20 06:21N 37°00' E 000°55'16415.1
2016-Jan-19 19:31N 36°13' W 002°20'1515.4
2016-Jan-19 18:33N 36°12' W 002°38'1514.9
2016-Jan-19 17:32N 36°10' W 002°57'11114.8
2016-Jan-19 10:03N 36°00' W 005°13'815.2
2016-Jan-19 09:33N 35°58' W 005°22'12813.7
2016-Jan-19 00:16N 36°05' W 008°00'1114.0
2016-Jan-18 23:28N 36°07' W 008°14'1313.4
2016-Jan-18 22:31N 36°09' W 008°29'1414.1
2016-Jan-18 21:31N 36°10' W 008°47'1313.4
2016-Jan-18 20:31N 36°14' W 009°03'1413.7
2016-Jan-18 19:28N 36°25' W 009°14'1313.5
2016-Jan-18 18:31N 36°35' W 009°25'1414.0
2016-Jan-18 17:31N 36°45' W 009°36'1414.1
2016-Jan-18 16:31N 36°59' W 009°41'1514.8
2016-Jan-18 15:31N 37°13' W 009°45'1413.7
2016-Jan-18 14:28N 37°27' W 009°49'1314.1
2016-Jan-18 13:34N 37°40' W 009°53'1413.5
2016-Jan-18 12:31N 37°53' W 009°57'1414.2
2016-Jan-18 11:31N 38°07' W 010°01'1413.9
2016-Jan-18 10:31N 38°21' W 010°05'1212.5
2016-Jan-18 09:33N 38°32' W 010°08'1413.7
2016-Jan-18 08:33N 38°46' W 010°11'1313.4
2016-Jan-18 07:34N 38°59' W 010°12'1313.2
2016-Jan-18 06:33N 39°13' W 010°11'1714.7
2016-Jan-18 05:25N 39°29' W 010°11'1314.1
2016-Jan-18 04:31N 39°42' W 010°11'1413.4
2016-Jan-18 03:28N 39°56' W 010°11'1414.2
2016-Jan-18 02:28N 40°10' W 010°11'1413.5
2016-Jan-18 01:25N 40°24' W 010°11'1112.9
2016-Jan-18 00:33N 40°36' W 010°11'1413.7
2016-Jan-17 23:33N 40°49' W 010°11'1413.5
2016-Jan-17 22:33N 41°03' W 010°11'1313.4
2016-Jan-17 21:33N 41°16' W 010°11'1412.8
2016-Jan-17 20:30N 41°30' W 010°11'1212.2
2016-Jan-17 19:33N 41°41' W 010°11'1313.0
2016-Jan-17 18:33N 41°54' W 010°12'  
2016-Jan-15 10:33N 50°31' E 000°00'1212.4
2016-Jan-15 09:33N 50°34' E 000°19'1413.6
2016-Jan-15 08:33N 50°39' E 000°39'1414.4
2016-Jan-15 07:33N 50°49' E 000°56'1513.6
2016-Jan-15 06:27N 50°58' E 001°15'1112.4
2016-Jan-15 05:34N 51°05' E 001°28'1111.0
2016-Jan-15 04:34N 51°12' E 001°42'1110.8
2016-Jan-15 03:33N 51°21' E 001°51'1211.6
2016-Jan-15 02:34N 51°31' E 002°01'1312.8
2016-Jan-15 01:33N 51°41' E 002°14'7612.5
2016-Jan-14 19:29N 52°31' E 003°47'1111.6
2016-Jan-14 18:33N 52°31' E 004°05'1010.4
2016-Jan-14 17:33N 52°30' E 004°22'7 6.9
2016-Jan-14 16:34N 52°28' E 004°32'3 2.5
2016-Jan-14 15:33N 52°28' E 004°37'4 4.1
2016-Jan-14 14:34N 52°26' E 004°43'2 2.0
2016-Jan-14 13:31N 52°25' E 004°45'0 0.0
2016-Jan-14 12:28N 52°25' E 004°45'0 0.0
2016-Jan-14 11:31N 52°25' E 004°45'0 0.0
2016-Jan-14 10:31N 52°25' E 004°45'0 0.0
2016-Jan-14 09:31N 52°25' E 004°45'0 0.0
2016-Jan-14 08:31N 52°25' E 004°45'0 0.0
2016-Jan-14 07:28N 52°25' E 004°45'0 0.0
2016-Jan-14 06:31N 52°25' E 004°45'0 0.0
2016-Jan-14 05:31N 52°25' E 004°45'0 0.0
2016-Jan-14 04:31N 52°25' E 004°45'0 0.0
2016-Jan-14 03:31N 52°25' E 004°45'0 0.0
2016-Jan-14 02:31N 52°25' E 004°45'0 0.0
2016-Jan-14 01:31N 52°25' E 004°45'0 0.0
2016-Jan-14 00:31N 52°25' E 004°45'0 0.0
2016-Jan-13 23:31N 52°25' E 004°45'0 0.0
2016-Jan-13 22:31N 52°25' E 004°45'0 0.0
2016-Jan-13 21:28N 52°25' E 004°45'0 0.0
2016-Jan-13 20:31N 52°25' E 004°45'0 0.0
2016-Jan-13 19:28N 52°25' E 004°45'0 0.0
2016-Jan-13 18:31N 52°25' E 004°45'0 0.0
2016-Jan-13 17:31N 52°25' E 004°45'0 0.0
2016-Jan-13 16:31N 52°25' E 004°45'0 0.0
2016-Jan-13 15:28N 52°25' E 004°45'0 0.0
2016-Jan-13 14:31N 52°25' E 004°45'0 0.0
2016-Jan-13 13:31N 52°25' E 004°45'0 0.0
2016-Jan-13 12:31N 52°25' E 004°45'0 0.0
2016-Jan-13 11:28N 52°25' E 004°45'0 0.0
2016-Jan-13 10:31N 52°25' E 004°45'0 0.0
2016-Jan-13 09:31N 52°25' E 004°45'0 0.0
2016-Jan-13 08:31N 52°25' E 004°45'0 0.0
2016-Jan-13 07:31N 52°25' E 004°45'0 0.0
2016-Jan-13 06:31N 52°25' E 004°45'0 0.0
2016-Jan-13 05:31N 52°25' E 004°45'0 0.0
2016-Jan-13 04:31N 52°25' E 004°45'0 0.0
2016-Jan-13 03:31N 52°25' E 004°45'0 0.0
2016-Jan-13 02:31N 52°25' E 004°45'0 0.0
2016-Jan-13 01:31N 52°25' E 004°45'0 0.0
2016-Jan-13 00:31N 52°25' E 004°45'0 0.0
2016-Jan-12 23:31N 52°25' E 004°45'0 0.0
2016-Jan-12 22:31N 52°25' E 004°45'0 0.0
2016-Jan-12 21:31N 52°25' E 004°45'0 0.0
2016-Jan-12 20:31N 52°25' E 004°45'0 0.0
2016-Jan-12 19:31N 52°25' E 004°45'0 0.0
2016-Jan-12 18:28N 52°25' E 004°45'0 0.0
2016-Jan-12 17:31N 52°25' E 004°45'0 0.0
2016-Jan-12 16:28N 52°25' E 004°45'0 0.0
2016-Jan-12 15:31N 52°25' E 004°45'0 0.0
2016-Jan-12 14:31N 52°25' E 004°45'0 0.0
2016-Jan-12 13:31N 52°25' E 004°45'0 0.0
2016-Jan-12 12:31N 52°25' E 004°45'0 0.0
2016-Jan-12 11:31N 52°25' E 004°45'0 0.0
2016-Jan-12 10:28N 52°25' E 004°45'0 0.0
2016-Jan-12 09:31N 52°25' E 004°45'0 0.0
2016-Jan-12 08:31N 52°25' E 004°45'0 0.0
2016-Jan-12 07:31N 52°25' E 004°45'0 0.0
2016-Jan-12 06:31N 52°25' E 004°45'0 0.0
2016-Jan-12 05:31N 52°25' E 004°45'0 0.0
2016-Jan-12 04:31N 52°25' E 004°45'0 0.0
2016-Jan-12 03:31N 52°25' E 004°45'  

Dump ship's entire track history